Warm Springs, Virginia
Current Conditions -  °F | °C
As of 4:55 AM on Friday 19 Dec 2014 (Local Time) from KHSP Reporting Station
Scattered Clouds Scattered Clouds  
Wind Chill: -12°   Ceiling: Unl
Heat Index: -6°   Visibility: 10mi
Dew Point: -6°   Wind: 10mph
Humidity: 100%   Direction: 290°WNW
Pressure: 29.96"   Gusts: NA
Location:  38.05°N, 79.79°W
Report Text: KHSP 190955Z AUTO 29009KT 10SM SCT006 M06/M06 A2996 RMK AO2 T10621062
Loading
Personal Weather Stations






























Interactive Weather Map New forecast layout! Learn more

10-Day Weather Forecast

Advertisements
Track Severe Weather on mobile